sensor_id;sensor_type;location;lat;lon;timestamp;P1;durP1;ratioP1;P2;durP2;ratioP2
37280;SDS011;23169;41.804;12.596;2023-05-31T00:02:20;11.25;;;4.82;;
37280;SDS011;23169;41.804;12.596;2023-05-31T00:04:49;12.40;;;5.53;;
37280;SDS011;23169;41.804;12.596;2023-05-31T00:07:19;9.45;;;5.13;;
37280;SDS011;23169;41.804;12.596;2023-05-31T00:09:48;11.30;;;4.88;;
37280;SDS011;23169;41.804;12.596;2023-05-31T00:12:17;11.20;;;5.10;;
37280;SDS011;23169;41.804;12.596;2023-05-31T00:14:46;11.07;;;5.15;;
37280;SDS011;23169;41.804;12.596;2023-05-31T00:17:15;10.73;;;4.95;;
37280;SDS011;23169;41.804;12.596;2023-05-31T00:19:45;13.63;;;5.03;;
37280;SDS011;23169;41.804;12.596;2023-05-31T00:22:14;10.65;;;4.93;;
37280;SDS011;23169;41.804;12.596;2023-05-31T00:24:46;9.32;;;5.15;;
37280;SDS011;23169;41.804;12.596;2023-05-31T00:27:17;11.20;;;5.10;;
37280;SDS011;23169;41.804;12.596;2023-05-31T00:29:46;8.70;;;5.10;;
37280;SDS011;23169;41.804;12.596;2023-05-31T00:32:15;10.82;;;4.93;;
37280;SDS011;23169;41.804;12.596;2023-05-31T00:34:44;10.07;;;5.38;;
37280;SDS011;23169;41.804;12.596;2023-05-31T00:37:13;11.70;;;5.53;;
37280;SDS011;23169;41.804;12.596;2023-05-31T00:39:42;11.23;;;5.88;;
37280;SDS011;23169;41.804;12.596;2023-05-31T00:42:12;11.73;;;5.03;;
37280;SDS011;23169;41.804;12.596;2023-05-31T00:44:42;9.00;;;5.20;;
37280;SDS011;23169;41.804;12.596;2023-05-31T00:47:11;9.88;;;5.13;;
37280;SDS011;23169;41.804;12.596;2023-05-31T00:49:40;11.40;;;5.40;;
37280;SDS011;23169;41.804;12.596;2023-05-31T00:52:09;12.07;;;5.57;;
37280;SDS011;23169;41.804;12.596;2023-05-31T00:54:38;8.93;;;4.97;;
37280;SDS011;23169;41.804;12.596;2023-05-31T00:57:08;10.45;;;5.55;;
37280;SDS011;23169;41.804;12.596;2023-05-31T00:59:38;8.80;;;5.22;;
37280;SDS011;23169;41.804;12.596;2023-05-31T01:02:07;11.25;;;5.47;;
37280;SDS011;23169;41.804;12.596;2023-05-31T01:04:39;11.63;;;5.03;;
37280;SDS011;23169;41.804;12.596;2023-05-31T01:07:08;9.55;;;4.90;;
37280;SDS011;23169;41.804;12.596;2023-05-31T01:09:37;9.57;;;5.03;;
37280;SDS011;23169;41.804;12.596;2023-05-31T01:12:16;12.10;;;5.18;;
37280;SDS011;23169;41.804;12.596;2023-05-31T01:15:10;11.15;;;5.22;;
37280;SDS011;23169;41.804;12.596;2023-05-31T01:17:54;12.80;;;5.20;;
37280;SDS011;23169;41.804;12.596;2023-05-31T01:20:32;9.77;;;4.90;;
37280;SDS011;23169;41.804;12.596;2023-05-31T01:28:51;10.82;;;4.85;;
37280;SDS011;23169;41.804;12.596;2023-05-31T01:31:23;10.55;;;5.47;;
37280;SDS011;23169;41.804;12.596;2023-05-31T01:33:53;10.18;;;5.22;;
37280;SDS011;23169;41.804;12.596;2023-05-31T01:36:22;11.60;;;6.20;;
37280;SDS011;23169;41.804;12.596;2023-05-31T01:38:52;13.40;;;7.05;;
37280;SDS011;23169;41.804;12.596;2023-05-31T01:41:20;16.80;;;7.47;;
37280;SDS011;23169;41.804;12.596;2023-05-31T01:43:53;15.88;;;7.05;;
37280;SDS011;23169;41.804;12.596;2023-05-31T01:46:23;13.93;;;6.65;;
37280;SDS011;23169;41.804;12.596;2023-05-31T01:48:52;14.70;;;6.57;;
37280;SDS011;23169;41.804;12.596;2023-05-31T01:51:21;14.32;;;6.78;;
37280;SDS011;23169;41.804;12.596;2023-05-31T01:53:51;17.02;;;6.97;;
37280;SDS011;23169;41.804;12.596;2023-05-31T01:56:20;13.15;;;6.40;;
37280;SDS011;23169;41.804;12.596;2023-05-31T01:58:49;13.13;;;6.65;;
37280;SDS011;23169;41.804;12.596;2023-05-31T02:01:19;16.70;;;6.75;;
37280;SDS011;23169;41.804;12.596;2023-05-31T02:03:49;15.27;;;6.93;;
37280;SDS011;23169;41.804;12.596;2023-05-31T02:06:36;13.00;;;6.77;;
37280;SDS011;23169;41.804;12.596;2023-05-31T02:09:22;14.38;;;6.60;;
37280;SDS011;23169;41.804;12.596;2023-05-31T02:12:09;16.92;;;6.60;;
37280;SDS011;23169;41.804;12.596;2023-05-31T02:14:55;16.33;;;6.78;;
37280;SDS011;23169;41.804;12.596;2023-05-31T02:17:44;12.52;;;6.50;;
37280;SDS011;23169;41.804;12.596;2023-05-31T02:20:32;14.18;;;7.38;;
37280;SDS011;23169;41.804;12.596;2023-05-31T02:23:19;11.88;;;6.05;;
37280;SDS011;23169;41.804;12.596;2023-05-31T02:26:05;16.85;;;7.13;;
37280;SDS011;23169;41.804;12.596;2023-05-31T02:28:52;15.73;;;6.95;;
37280;SDS011;23169;41.804;12.596;2023-05-31T02:31:38;16.77;;;6.88;;
37280;SDS011;23169;41.804;12.596;2023-05-31T02:34:25;13.57;;;6.43;;
37280;SDS011;23169;41.804;12.596;2023-05-31T02:37:05;13.00;;;6.15;;
37280;SDS011;23169;41.804;12.596;2023-05-31T02:39:51;13.95;;;6.40;;
37280;SDS011;23169;41.804;12.596;2023-05-31T02:42:38;10.37;;;5.63;;
37280;SDS011;23169;41.804;12.596;2023-05-31T02:45:26;15.40;;;7.30;;
37280;SDS011;23169;41.804;12.596;2023-05-31T02:48:12;14.15;;;6.35;;
37280;SDS011;23169;41.804;12.596;2023-05-31T02:50:58;16.42;;;6.97;;
37280;SDS011;23169;41.804;12.596;2023-05-31T02:53:41;14.05;;;7.45;;
37280;SDS011;23169;41.804;12.596;2023-05-31T02:56:28;17.33;;;6.93;;
37280;SDS011;23169;41.804;12.596;2023-05-31T02:59:15;13.38;;;5.95;;
37280;SDS011;23169;41.804;12.596;2023-05-31T03:02:01;19.48;;;6.97;;
37280;SDS011;23169;41.804;12.596;2023-05-31T03:04:48;14.57;;;7.03;;
37280;SDS011;23169;41.804;12.596;2023-05-31T03:07:35;15.80;;;6.57;;
37280;SDS011;23169;41.804;12.596;2023-05-31T03:10:04;18.65;;;7.03;;
37280;SDS011;23169;41.804;12.596;2023-05-31T03:12:41;15.13;;;6.70;;
37280;SDS011;23169;41.804;12.596;2023-05-31T03:15:10;14.35;;;6.65;;
37280;SDS011;23169;41.804;12.596;2023-05-31T03:17:39;15.15;;;6.57;;
37280;SDS011;23169;41.804;12.596;2023-05-31T03:20:08;17.15;;;7.93;;
37280;SDS011;23169;41.804;12.596;2023-05-31T03:22:37;17.20;;;6.20;;
37280;SDS011;23169;41.804;12.596;2023-05-31T03:25:07;16.05;;;6.75;;
37280;SDS011;23169;41.804;12.596;2023-05-31T03:27:37;14.13;;;6.63;;
37280;SDS011;23169;41.804;12.596;2023-05-31T03:30:07;13.82;;;6.75;;
37280;SDS011;23169;41.804;12.596;2023-05-31T03:32:38;14.32;;;6.50;;
37280;SDS011;23169;41.804;12.596;2023-05-31T03:35:07;17.90;;;6.75;;
37280;SDS011;23169;41.804;12.596;2023-05-31T03:37:36;15.57;;;6.68;;
37280;SDS011;23169;41.804;12.596;2023-05-31T03:40:05;17.08;;;6.43;;
37280;SDS011;23169;41.804;12.596;2023-05-31T03:42:34;12.02;;;6.35;;
37280;SDS011;23169;41.804;12.596;2023-05-31T03:45:04;13.02;;;6.15;;
37280;SDS011;23169;41.804;12.596;2023-05-31T03:47:34;16.05;;;6.50;;
37280;SDS011;23169;41.804;12.596;2023-05-31T03:50:03;14.90;;;6.43;;
37280;SDS011;23169;41.804;12.596;2023-05-31T03:52:34;13.40;;;6.45;;
37280;SDS011;23169;41.804;12.596;2023-05-31T03:55:05;14.18;;;6.38;;
37280;SDS011;23169;41.804;12.596;2023-05-31T03:57:34;17.85;;;6.88;;
37280;SDS011;23169;41.804;12.596;2023-05-31T04:00:03;13.85;;;6.15;;
37280;SDS011;23169;41.804;12.596;2023-05-31T04:02:34;20.45;;;6.68;;
37280;SDS011;23169;41.804;12.596;2023-05-31T04:05:05;10.82;;;5.88;;
37280;SDS011;23169;41.804;12.596;2023-05-31T04:07:34;17.73;;;7.50;;
37280;SDS011;23169;41.804;12.596;2023-05-31T04:10:03;14.27;;;5.82;;
37280;SDS011;23169;41.804;12.596;2023-05-31T04:12:33;14.30;;;6.07;;
37280;SDS011;23169;41.804;12.596;2023-05-31T04:15:03;14.38;;;5.97;;
37280;SDS011;23169;41.804;12.596;2023-05-31T04:17:33;11.63;;;5.70;;
37280;SDS011;23169;41.804;12.596;2023-05-31T04:20:01;18.63;;;6.65;;
37280;SDS011;23169;41.804;12.596;2023-05-31T04:22:36;12.43;;;5.93;;
37280;SDS011;23169;41.804;12.596;2023-05-31T04:25:05;15.55;;;6.22;;
37280;SDS011;23169;41.804;12.596;2023-05-31T04:27:34;11.55;;;5.65;;
37280;SDS011;23169;41.804;12.596;2023-05-31T04:30:06;13.25;;;6.68;;
37280;SDS011;23169;41.804;12.596;2023-05-31T04:32:36;15.27;;;6.20;;
37280;SDS011;23169;41.804;12.596;2023-05-31T04:35:05;13.65;;;6.20;;
37280;SDS011;23169;41.804;12.596;2023-05-31T04:37:36;11.57;;;6.05;;
37280;SDS011;23169;41.804;12.596;2023-05-31T04:40:04;13.13;;;5.93;;
37280;SDS011;23169;41.804;12.596;2023-05-31T04:42:37;17.45;;;6.15;;
37280;SDS011;23169;41.804;12.596;2023-05-31T04:45:07;14.73;;;6.30;;
37280;SDS011;23169;41.804;12.596;2023-05-31T04:47:36;14.50;;;6.18;;
37280;SDS011;23169;41.804;12.596;2023-05-31T04:50:05;16.17;;;6.07;;
37280;SDS011;23169;41.804;12.596;2023-05-31T04:52:35;13.43;;;5.68;;
37280;SDS011;23169;41.804;12.596;2023-05-31T04:55:07;12.63;;;6.03;;
37280;SDS011;23169;41.804;12.596;2023-05-31T04:57:37;11.45;;;5.82;;
37280;SDS011;23169;41.804;12.596;2023-05-31T05:00:06;14.70;;;6.05;;
37280;SDS011;23169;41.804;12.596;2023-05-31T05:02:39;14.85;;;6.53;;
37280;SDS011;23169;41.804;12.596;2023-05-31T05:05:08;12.98;;;5.82;;
37280;SDS011;23169;41.804;12.596;2023-05-31T05:07:37;12.55;;;5.97;;
37280;SDS011;23169;41.804;12.596;2023-05-31T05:10:06;17.73;;;5.95;;
37280;SDS011;23169;41.804;12.596;2023-05-31T05:12:36;14.85;;;5.88;;
37280;SDS011;23169;41.804;12.596;2023-05-31T05:15:04;12.45;;;5.60;;
37280;SDS011;23169;41.804;12.596;2023-05-31T05:17:34;13.77;;;5.55;;
37280;SDS011;23169;41.804;12.596;2023-05-31T05:20:02;12.07;;;6.28;;
37280;SDS011;23169;41.804;12.596;2023-05-31T05:22:36;10.48;;;5.22;;
37280;SDS011;23169;41.804;12.596;2023-05-31T05:25:05;13.07;;;5.78;;
37280;SDS011;23169;41.804;12.596;2023-05-31T05:27:34;12.57;;;5.78;;
37280;SDS011;23169;41.804;12.596;2023-05-31T05:30:08;18.77;;;6.22;;
37280;SDS011;23169;41.804;12.596;2023-05-31T05:32:54;14.55;;;6.00;;
37280;SDS011;23169;41.804;12.596;2023-05-31T05:35:23;12.30;;;5.85;;
37280;SDS011;23169;41.804;12.596;2023-05-31T05:37:52;13.32;;;5.70;;
37280;SDS011;23169;41.804;12.596;2023-05-31T05:40:20;12.52;;;6.50;;
37280;SDS011;23169;41.804;12.596;2023-05-31T05:42:49;15.13;;;6.43;;
37280;SDS011;23169;41.804;12.596;2023-05-31T05:45:18;22.27;;;6.45;;
37280;SDS011;23169;41.804;12.596;2023-05-31T05:47:47;20.08;;;6.07;;
37280;SDS011;23169;41.804;12.596;2023-05-31T05:50:16;15.07;;;6.00;;
37280;SDS011;23169;41.804;12.596;2023-05-31T05:52:45;15.77;;;5.95;;
37280;SDS011;23169;41.804;12.596;2023-05-31T05:55:14;10.32;;;5.35;;
37280;SDS011;23169;41.804;12.596;2023-05-31T05:57:43;13.13;;;5.07;;
37280;SDS011;23169;41.804;12.596;2023-05-31T06:00:13;12.40;;;5.75;;
37280;SDS011;23169;41.804;12.596;2023-05-31T06:02:43;11.35;;;5.15;;
37280;SDS011;23169;41.804;12.596;2023-05-31T06:05:12;13.05;;;5.18;;
37280;SDS011;23169;41.804;12.596;2023-05-31T06:07:41;12.27;;;5.45;;
37280;SDS011;23169;41.804;12.596;2023-05-31T06:10:10;11.98;;;5.35;;
37280;SDS011;23169;41.804;12.596;2023-05-31T06:12:38;10.27;;;5.05;;
37280;SDS011;23169;41.804;12.596;2023-05-31T06:15:07;10.52;;;4.65;;
37280;SDS011;23169;41.804;12.596;2023-05-31T06:17:36;15.10;;;5.18;;
37280;SDS011;23169;41.804;12.596;2023-05-31T06:20:05;12.57;;;5.35;;
37280;SDS011;23169;41.804;12.596;2023-05-31T06:22:36;12.35;;;5.20;;
37280;SDS011;23169;41.804;12.596;2023-05-31T06:25:05;10.55;;;5.43;;
37280;SDS011;23169;41.804;12.596;2023-05-31T06:27:36;14.55;;;5.75;;
37280;SDS011;23169;41.804;12.596;2023-05-31T06:30:06;16.40;;;6.60;;
37280;SDS011;23169;41.804;12.596;2023-05-31T06:32:37;11.10;;;5.63;;
37280;SDS011;23169;41.804;12.596;2023-05-31T06:35:06;11.60;;;5.63;;
37280;SDS011;23169;41.804;12.596;2023-05-31T06:37:36;15.52;;;6.28;;
37280;SDS011;23169;41.804;12.596;2023-05-31T06:40:05;9.88;;;5.20;;
37280;SDS011;23169;41.804;12.596;2023-05-31T06:42:35;13.98;;;5.18;;
37280;SDS011;23169;41.804;12.596;2023-05-31T06:45:04;11.55;;;5.47;;
37280;SDS011;23169;41.804;12.596;2023-05-31T06:47:35;11.82;;;5.15;;
37280;SDS011;23169;41.804;12.596;2023-05-31T06:50:03;11.07;;;5.05;;
37280;SDS011;23169;41.804;12.596;2023-05-31T06:52:33;9.77;;;4.93;;
37280;SDS011;23169;41.804;12.596;2023-05-31T06:55:02;8.88;;;4.47;;
37280;SDS011;23169;41.804;12.596;2023-05-31T06:57:30;13.13;;;4.70;;
37280;SDS011;23169;41.804;12.596;2023-05-31T06:59:59;11.25;;;5.03;;
37280;SDS011;23169;41.804;12.596;2023-05-31T07:02:29;8.98;;;4.43;;
37280;SDS011;23169;41.804;12.596;2023-05-31T07:04:57;12.23;;;5.00;;
37280;SDS011;23169;41.804;12.596;2023-05-31T07:07:28;9.32;;;4.53;;
37280;SDS011;23169;41.804;12.596;2023-05-31T07:09:57;9.95;;;4.55;;
37280;SDS011;23169;41.804;12.596;2023-05-31T07:12:26;8.95;;;4.38;;
37280;SDS011;23169;41.804;12.596;2023-05-31T07:14:54;8.98;;;4.53;;
37280;SDS011;23169;41.804;12.596;2023-05-31T07:17:23;7.63;;;4.35;;
37280;SDS011;23169;41.804;12.596;2023-05-31T07:19:52;8.27;;;4.63;;
37280;SDS011;23169;41.804;12.596;2023-05-31T07:22:21;10.25;;;4.68;;
37280;SDS011;23169;41.804;12.596;2023-05-31T07:24:50;10.25;;;4.07;;
37280;SDS011;23169;41.804;12.596;2023-05-31T07:27:18;10.02;;;4.22;;
37280;SDS011;23169;41.804;12.596;2023-05-31T07:29:47;6.97;;;4.15;;
37280;SDS011;23169;41.804;12.596;2023-05-31T07:32:16;8.02;;;4.05;;
37280;SDS011;23169;41.804;12.596;2023-05-31T07:34:44;8.90;;;4.50;;
37280;SDS011;23169;41.804;12.596;2023-05-31T07:37:13;7.72;;;4.03;;
37280;SDS011;23169;41.804;12.596;2023-05-31T07:39:44;10.13;;;4.70;;
37280;SDS011;23169;41.804;12.596;2023-05-31T07:42:12;9.38;;;4.95;;
37280;SDS011;23169;41.804;12.596;2023-05-31T07:44:42;7.93;;;4.65;;
37280;SDS011;23169;41.804;12.596;2023-05-31T07:47:10;10.13;;;5.03;;
37280;SDS011;23169;41.804;12.596;2023-05-31T07:49:38;11.35;;;4.55;;
37280;SDS011;23169;41.804;12.596;2023-05-31T07:52:08;11.10;;;4.40;;
37280;SDS011;23169;41.804;12.596;2023-05-31T07:54:37;8.80;;;4.43;;
37280;SDS011;23169;41.804;12.596;2023-05-31T07:57:06;7.95;;;4.10;;
37280;SDS011;23169;41.804;12.596;2023-05-31T07:59:34;12.05;;;4.63;;
37280;SDS011;23169;41.804;12.596;2023-05-31T08:02:03;7.85;;;4.60;;
37280;SDS011;23169;41.804;12.596;2023-05-31T08:04:33;8.65;;;4.10;;
37280;SDS011;23169;41.804;12.596;2023-05-31T08:07:02;9.65;;;4.60;;
37280;SDS011;23169;41.804;12.596;2023-05-31T08:09:31;7.88;;;4.40;;
37280;SDS011;23169;41.804;12.596;2023-05-31T08:11:59;8.75;;;4.80;;
37280;SDS011;23169;41.804;12.596;2023-05-31T08:14:29;10.10;;;4.45;;
37280;SDS011;23169;41.804;12.596;2023-05-31T08:16:58;9.45;;;4.80;;
37280;SDS011;23169;41.804;12.596;2023-05-31T08:19:27;9.07;;;4.63;;
37280;SDS011;23169;41.804;12.596;2023-05-31T08:21:55;6.63;;;4.30;;
37280;SDS011;23169;41.804;12.596;2023-05-31T08:24:24;7.97;;;4.60;;
37280;SDS011;23169;41.804;12.596;2023-05-31T08:26:54;8.07;;;4.43;;
37280;SDS011;23169;41.804;12.596;2023-05-31T08:29:23;9.95;;;4.95;;
37280;SDS011;23169;41.804;12.596;2023-05-31T08:31:52;13.13;;;4.95;;
37280;SDS011;23169;41.804;12.596;2023-05-31T08:34:20;9.02;;;4.60;;
37280;SDS011;23169;41.804;12.596;2023-05-31T08:36:51;9.18;;;4.80;;
37280;SDS011;23169;41.804;12.596;2023-05-31T08:39:19;7.75;;;4.50;;
37280;SDS011;23169;41.804;12.596;2023-05-31T08:44:30;12.40;;;5.05;;
37280;SDS011;23169;41.804;12.596;2023-05-31T08:47:19;12.63;;;4.93;;
37280;SDS011;23169;41.804;12.596;2023-05-31T08:49:56;12.95;;;4.70;;
37280;SDS011;23169;41.804;12.596;2023-05-31T08:52:30;14.35;;;4.47;;
37280;SDS011;23169;41.804;12.596;2023-05-31T08:55:00;7.30;;;4.22;;
37280;SDS011;23169;41.804;12.596;2023-05-31T08:57:30;7.10;;;3.97;;
37280;SDS011;23169;41.804;12.596;2023-05-31T09:00:00;9.10;;;4.53;;
37280;SDS011;23169;41.804;12.596;2023-05-31T09:02:37;8.13;;;4.75;;
37280;SDS011;23169;41.804;12.596;2023-05-31T09:05:06;10.32;;;4.65;;
37280;SDS011;23169;41.804;12.596;2023-05-31T09:07:38;9.13;;;4.57;;
37280;SDS011;23169;41.804;12.596;2023-05-31T09:10:07;10.52;;;4.63;;
37280;SDS011;23169;41.804;12.596;2023-05-31T09:12:37;9.70;;;4.65;;
37280;SDS011;23169;41.804;12.596;2023-05-31T09:15:05;8.52;;;4.72;;
37280;SDS011;23169;41.804;12.596;2023-05-31T09:17:35;9.65;;;4.85;;
37280;SDS011;23169;41.804;12.596;2023-05-31T09:20:03;9.98;;;4.32;;
37280;SDS011;23169;41.804;12.596;2023-05-31T09:22:33;9.70;;;5.07;;
37280;SDS011;23169;41.804;12.596;2023-05-31T09:25:02;10.23;;;4.20;;
37280;SDS011;23169;41.804;12.596;2023-05-31T09:27:34;10.73;;;4.80;;
37280;SDS011;23169;41.804;12.596;2023-05-31T09:30:08;10.73;;;4.72;;
37280;SDS011;23169;41.804;12.596;2023-05-31T09:32:38;11.60;;;4.78;;
37280;SDS011;23169;41.804;12.596;2023-05-31T09:35:11;9.52;;;4.68;;
37280;SDS011;23169;41.804;12.596;2023-05-31T09:37:42;9.95;;;4.72;;
37280;SDS011;23169;41.804;12.596;2023-05-31T09:40:22;9.75;;;4.85;;
37280;SDS011;23169;41.804;12.596;2023-05-31T09:42:53;7.95;;;4.78;;
37280;SDS011;23169;41.804;12.596;2023-05-31T09:45:22;9.48;;;4.72;;
37280;SDS011;23169;41.804;12.596;2023-05-31T09:47:51;12.55;;;5.10;;
37280;SDS011;23169;41.804;12.596;2023-05-31T09:50:21;11.52;;;5.20;;
37280;SDS011;23169;41.804;12.596;2023-05-31T09:52:57;8.77;;;4.50;;
37280;SDS011;23169;41.804;12.596;2023-05-31T09:55:38;9.15;;;4.63;;
37280;SDS011;23169;41.804;12.596;2023-05-31T09:58:10;10.13;;;5.13;;
37280;SDS011;23169;41.804;12.596;2023-05-31T10:01:00;9.18;;;4.60;;
37280;SDS011;23169;41.804;12.596;2023-05-31T10:03:31;13.63;;;4.63;;
37280;SDS011;23169;41.804;12.596;2023-05-31T10:06:02;9.00;;;4.60;;
37280;SDS011;23169;41.804;12.596;2023-05-31T10:08:33;11.70;;;4.90;;
37280;SDS011;23169;41.804;12.596;2023-05-31T10:11:04;11.18;;;5.03;;
37280;SDS011;23169;41.804;12.596;2023-05-31T10:13:33;14.05;;;5.32;;
37280;SDS011;23169;41.804;12.596;2023-05-31T10:16:04;18.17;;;6.32;;
37280;SDS011;23169;41.804;12.596;2023-05-31T10:18:36;10.75;;;5.50;;
37280;SDS011;23169;41.804;12.596;2023-05-31T10:21:09;11.93;;;4.72;;
37280;SDS011;23169;41.804;12.596;2023-05-31T10:23:45;10.30;;;4.50;;
37280;SDS011;23169;41.804;12.596;2023-05-31T10:29:21;7.80;;;4.20;;
37280;SDS011;23169;41.804;12.596;2023-05-31T10:31:54;10.77;;;4.45;;
37280;SDS011;23169;41.804;12.596;2023-05-31T10:34:25;9.52;;;4.40;;
37280;SDS011;23169;41.804;12.596;2023-05-31T10:36:54;10.57;;;4.50;;
37280;SDS011;23169;41.804;12.596;2023-05-31T10:47:40;10.75;;;4.82;;
37280;SDS011;23169;41.804;12.596;2023-05-31T10:50:19;6.60;;;4.22;;
37280;SDS011;23169;41.804;12.596;2023-05-31T10:52:52;9.05;;;4.30;;
37280;SDS011;23169;41.804;12.596;2023-05-31T10:55:42;8.80;;;4.18;;
37280;SDS011;23169;41.804;12.596;2023-05-31T10:58:27;11.40;;;4.80;;
37280;SDS011;23169;41.804;12.596;2023-05-31T11:01:05;11.23;;;4.03;;
37280;SDS011;23169;41.804;12.596;2023-05-31T11:03:54;8.27;;;4.47;;
37280;SDS011;23169;41.804;12.596;2023-05-31T11:14:09;8.32;;;3.60;;
37280;SDS011;23169;41.804;12.596;2023-05-31T11:22:14;7.60;;;3.58;;
37280;SDS011;23169;41.804;12.596;2023-05-31T11:27:18;7.15;;;3.65;;
37280;SDS011;23169;41.804;12.596;2023-05-31T11:32:20;7.85;;;3.80;;
37280;SDS011;23169;41.804;12.596;2023-05-31T11:34:53;9.90;;;3.92;;
37280;SDS011;23169;41.804;12.596;2023-05-31T11:37:29;6.28;;;3.83;;
37280;SDS011;23169;41.804;12.596;2023-05-31T11:40:03;8.40;;;3.70;;
37280;SDS011;23169;41.804;12.596;2023-05-31T11:42:37;9.95;;;4.45;;
37280;SDS011;23169;41.804;12.596;2023-05-31T11:45:11;6.50;;;3.58;;
37280;SDS011;23169;41.804;12.596;2023-05-31T11:50:15;8.70;;;3.85;;
37280;SDS011;23169;41.804;12.596;2023-05-31T11:52:47;7.03;;;4.32;;
37280;SDS011;23169;41.804;12.596;2023-05-31T11:55:16;6.45;;;4.18;;
37280;SDS011;23169;41.804;12.596;2023-05-31T11:57:47;8.23;;;4.25;;
37280;SDS011;23169;41.804;12.596;2023-05-31T12:00:19;8.95;;;4.07;;
37280;SDS011;23169;41.804;12.596;2023-05-31T12:02:53;6.72;;;3.90;;
37280;SDS011;23169;41.804;12.596;2023-05-31T12:05:29;10.80;;;3.83;;
37280;SDS011;23169;41.804;12.596;2023-05-31T12:07:58;8.02;;;4.10;;
37280;SDS011;23169;41.804;12.596;2023-05-31T12:10:27;6.00;;;4.07;;
37280;SDS011;23169;41.804;12.596;2023-05-31T12:12:58;6.03;;;4.20;;
37280;SDS011;23169;41.804;12.596;2023-05-31T12:15:29;6.00;;;3.83;;
37280;SDS011;23169;41.804;12.596;2023-05-31T12:17:59;7.43;;;4.10;;
37280;SDS011;23169;41.804;12.596;2023-05-31T12:20:30;7.35;;;4.25;;
37280;SDS011;23169;41.804;12.596;2023-05-31T12:23:11;7.35;;;3.95;;
37280;SDS011;23169;41.804;12.596;2023-05-31T12:25:47;7.90;;;4.03;;
37280;SDS011;23169;41.804;12.596;2023-05-31T12:28:19;8.23;;;4.07;;
37280;SDS011;23169;41.804;12.596;2023-05-31T12:30:49;10.43;;;4.00;;
37280;SDS011;23169;41.804;12.596;2023-05-31T12:33:25;11.30;;;4.90;;
37280;SDS011;23169;41.804;12.596;2023-05-31T12:35:54;7.82;;;3.90;;
37280;SDS011;23169;41.804;12.596;2023-05-31T12:38:27;9.27;;;4.63;;
37280;SDS011;23169;41.804;12.596;2023-05-31T12:40:56;7.68;;;4.25;;
37280;SDS011;23169;41.804;12.596;2023-05-31T12:43:25;9.07;;;4.00;;
37280;SDS011;23169;41.804;12.596;2023-05-31T12:45:54;9.55;;;4.00;;
37280;SDS011;23169;41.804;12.596;2023-05-31T12:48:22;8.13;;;3.90;;
37280;SDS011;23169;41.804;12.596;2023-05-31T12:50:52;6.70;;;4.13;;
37280;SDS011;23169;41.804;12.596;2023-05-31T12:53:25;6.68;;;4.28;;
37280;SDS011;23169;41.804;12.596;2023-05-31T12:55:53;9.73;;;4.50;;
37280;SDS011;23169;41.804;12.596;2023-05-31T12:58:23;8.35;;;5.05;;
37280;SDS011;23169;41.804;12.596;2023-05-31T13:00:51;10.45;;;4.45;;
37280;SDS011;23169;41.804;12.596;2023-05-31T13:03:20;13.13;;;4.65;;
37280;SDS011;23169;41.804;12.596;2023-05-31T13:05:49;8.38;;;4.53;;
37280;SDS011;23169;41.804;12.596;2023-05-31T13:08:18;10.10;;;4.68;;
37280;SDS011;23169;41.804;12.596;2023-05-31T13:10:47;14.52;;;4.88;;
37280;SDS011;23169;41.804;12.596;2023-05-31T13:13:15;13.38;;;5.20;;
37280;SDS011;23169;41.804;12.596;2023-05-31T13:15:48;10.00;;;5.20;;
37280;SDS011;23169;41.804;12.596;2023-05-31T13:18:17;10.27;;;5.03;;
37280;SDS011;23169;41.804;12.596;2023-05-31T13:20:47;11.60;;;5.25;;
37280;SDS011;23169;41.804;12.596;2023-05-31T13:23:15;10.18;;;4.32;;
37280;SDS011;23169;41.804;12.596;2023-05-31T13:25:44;9.20;;;5.07;;
37280;SDS011;23169;41.804;12.596;2023-05-31T13:28:13;8.73;;;4.70;;
37280;SDS011;23169;41.804;12.596;2023-05-31T13:30:42;6.88;;;4.07;;
37280;SDS011;23169;41.804;12.596;2023-05-31T13:33:10;8.32;;;4.18;;
37280;SDS011;23169;41.804;12.596;2023-05-31T13:35:40;7.30;;;4.25;;
37280;SDS011;23169;41.804;12.596;2023-05-31T13:38:09;6.70;;;4.38;;
37280;SDS011;23169;41.804;12.596;2023-05-31T13:40:38;12.60;;;5.05;;
37280;SDS011;23169;41.804;12.596;2023-05-31T13:43:07;7.43;;;4.10;;
37280;SDS011;23169;41.804;12.596;2023-05-31T13:45:37;5.65;;;3.90;;
37280;SDS011;23169;41.804;12.596;2023-05-31T13:48:06;6.35;;;3.70;;
37280;SDS011;23169;41.804;12.596;2023-05-31T13:50:35;6.53;;;3.90;;
37280;SDS011;23169;41.804;12.596;2023-05-31T13:53:04;5.32;;;4.00;;
37280;SDS011;23169;41.804;12.596;2023-05-31T13:55:33;8.50;;;4.47;;
37280;SDS011;23169;41.804;12.596;2023-05-31T13:58:03;7.68;;;4.40;;
37280;SDS011;23169;41.804;12.596;2023-05-31T14:00:33;8.80;;;3.92;;
37280;SDS011;23169;41.804;12.596;2023-05-31T14:03:02;10.07;;;4.50;;
37280;SDS011;23169;41.804;12.596;2023-05-31T14:05:31;5.22;;;3.95;;
37280;SDS011;23169;41.804;12.596;2023-05-31T14:08:00;7.25;;;4.65;;
37280;SDS011;23169;41.804;12.596;2023-05-31T14:10:29;8.98;;;4.35;;
37280;SDS011;23169;41.804;12.596;2023-05-31T14:12:59;7.70;;;4.22;;
37280;SDS011;23169;41.804;12.596;2023-05-31T14:15:28;5.63;;;4.03;;
37280;SDS011;23169;41.804;12.596;2023-05-31T14:17:56;10.02;;;4.38;;
37280;SDS011;23169;41.804;12.596;2023-05-31T14:20:25;9.52;;;4.43;;
37280;SDS011;23169;41.804;12.596;2023-05-31T14:22:54;7.18;;;4.30;;
37280;SDS011;23169;41.804;12.596;2023-05-31T14:25:23;7.72;;;4.85;;
37280;SDS011;23169;41.804;12.596;2023-05-31T14:27:51;6.18;;;4.05;;
37280;SDS011;23169;41.804;12.596;2023-05-31T14:30:20;6.80;;;4.40;;
37280;SDS011;23169;41.804;12.596;2023-05-31T14:32:48;9.45;;;4.25;;
37280;SDS011;23169;41.804;12.596;2023-05-31T14:35:17;6.30;;;4.22;;
37280;SDS011;23169;41.804;12.596;2023-05-31T14:37:46;8.02;;;4.55;;
37280;SDS011;23169;41.804;12.596;2023-05-31T14:40:15;5.20;;;3.88;;
37280;SDS011;23169;41.804;12.596;2023-05-31T14:42:44;11.70;;;4.80;;
37280;SDS011;23169;41.804;12.596;2023-05-31T14:45:15;8.18;;;4.32;;
37280;SDS011;23169;41.804;12.596;2023-05-31T14:47:45;8.98;;;4.47;;
37280;SDS011;23169;41.804;12.596;2023-05-31T14:50:13;7.88;;;4.40;;
37280;SDS011;23169;41.804;12.596;2023-05-31T14:52:43;6.97;;;4.40;;
37280;SDS011;23169;41.804;12.596;2023-05-31T14:55:11;7.15;;;4.28;;
37280;SDS011;23169;41.804;12.596;2023-05-31T14:57:40;8.68;;;3.63;;
37280;SDS011;23169;41.804;12.596;2023-05-31T15:00:08;9.60;;;4.40;;
37280;SDS011;23169;41.804;12.596;2023-05-31T15:02:38;5.97;;;4.05;;
37280;SDS011;23169;41.804;12.596;2023-05-31T15:05:07;9.55;;;4.22;;
37280;SDS011;23169;41.804;12.596;2023-05-31T15:07:38;6.25;;;4.07;;
37280;SDS011;23169;41.804;12.596;2023-05-31T15:10:07;7.07;;;4.35;;
37280;SDS011;23169;41.804;12.596;2023-05-31T15:12:37;8.25;;;4.32;;
37280;SDS011;23169;41.804;12.596;2023-05-31T15:15:06;12.15;;;4.78;;
37280;SDS011;23169;41.804;12.596;2023-05-31T15:17:34;10.68;;;5.57;;
37280;SDS011;23169;41.804;12.596;2023-05-31T15:20:03;8.05;;;4.20;;
37280;SDS011;23169;41.804;12.596;2023-05-31T15:22:33;9.75;;;5.10;;
37280;SDS011;23169;41.804;12.596;2023-05-31T15:25:02;7.95;;;4.35;;
37280;SDS011;23169;41.804;12.596;2023-05-31T15:27:32;11.57;;;4.82;;
37280;SDS011;23169;41.804;12.596;2023-05-31T15:30:03;14.18;;;5.40;;
37280;SDS011;23169;41.804;12.596;2023-05-31T15:32:33;7.03;;;4.72;;